createdAt,value
2018-07-03T00:00:45.384Z,928.93
2018-07-03T00:01:45.360Z,928.92
2018-07-03T00:02:45.316Z,928.90
2018-07-03T00:03:45.319Z,928.91
2018-07-03T00:04:45.300Z,928.95
2018-07-03T00:05:45.255Z,928.95
2018-07-03T00:06:45.223Z,929.00
2018-07-03T00:07:45.223Z,929.03
2018-07-03T00:08:45.187Z,929.06
2018-07-03T00:09:45.194Z,929.09
2018-07-03T00:10:45.158Z,929.08
2018-07-03T00:11:45.151Z,929.09
2018-07-03T00:12:45.108Z,929.08
2018-07-03T00:13:45.085Z,929.10
2018-07-03T00:14:45.061Z,929.10
2018-07-03T00:15:45.045Z,929.12
2018-07-03T00:16:45.049Z,929.13
2018-07-03T00:17:45.003Z,929.11
2018-07-03T00:18:44.976Z,929.15
2018-07-03T00:19:44.970Z,929.15
2018-07-03T00:20:44.959Z,929.18
2018-07-03T00:21:44.939Z,929.13
2018-07-03T00:22:44.919Z,929.15
2018-07-03T00:23:44.867Z,929.12
2018-07-03T00:24:44.854Z,929.10
2018-07-03T00:25:44.831Z,929.08
2018-07-03T00:26:44.805Z,929.09
2018-07-03T00:27:44.786Z,929.09
2018-07-03T00:28:44.786Z,929.10
2018-07-03T00:29:44.761Z,929.11
2018-07-03T00:30:44.725Z,929.08
2018-07-03T00:31:44.702Z,929.11
2018-07-03T00:32:44.690Z,929.17
2018-07-03T00:33:44.689Z,929.18
2018-07-03T00:34:44.639Z,929.13
2018-07-03T00:35:44.645Z,929.15
2018-07-03T00:36:44.599Z,929.16
2018-07-03T00:37:44.585Z,929.18
2018-07-03T00:38:44.554Z,929.18
2018-07-03T00:39:44.537Z,929.21
2018-07-03T00:40:44.516Z,929.19
2018-07-03T00:41:44.519Z,929.16
2018-07-03T00:42:44.470Z,929.12
2018-07-03T00:43:44.464Z,929.16
2018-07-03T00:44:44.458Z,929.13
2018-07-03T00:45:44.437Z,929.14
2018-07-03T00:46:44.395Z,929.11
2018-07-03T00:47:44.394Z,929.15
2018-07-03T00:48:44.352Z,929.09
2018-07-03T00:49:44.350Z,929.11
2018-07-03T00:50:44.316Z,929.09
2018-07-03T00:51:44.284Z,929.11
2018-07-03T00:52:44.292Z,929.14
2018-07-03T00:53:44.255Z,929.12
2018-07-03T00:54:44.220Z,929.15
2018-07-03T00:55:44.226Z,929.15
2018-07-03T00:56:44.204Z,929.16
2018-07-03T00:57:44.180Z,929.21
2018-07-03T00:58:44.133Z,929.21
2018-07-03T00:59:44.117Z,929.22
2018-07-03T01:00:44.118Z,929.20
2018-07-03T01:01:44.095Z,929.24
2018-07-03T01:02:44.048Z,929.25
2018-07-03T01:03:44.027Z,929.21
2018-07-03T01:04:44.031Z,929.22
2018-07-03T01:05:43.990Z,929.23
2018-07-03T01:06:43.990Z,929.21
2018-07-03T01:07:43.968Z,929.30
2018-07-03T01:08:43.947Z,929.29
2018-07-03T01:09:43.900Z,929.29
2018-07-03T01:10:43.901Z,929.29
2018-07-03T01:11:43.862Z,929.27
2018-07-03T01:12:43.835Z,929.32
2018-07-03T01:13:43.822Z,929.30
2018-07-03T01:14:43.804Z,929.37
2018-07-03T01:15:43.785Z,929.35
2018-07-03T01:16:43.751Z,929.35
2018-07-03T01:17:43.735Z,929.37
2018-07-03T01:18:43.720Z,929.37
2018-07-03T01:19:43.684Z,929.38
2018-07-03T01:20:43.675Z,929.39
2018-07-03T01:21:43.658Z,929.37
2018-07-03T01:22:43.649Z,929.36
2018-07-03T01:23:43.600Z,929.37
2018-07-03T01:24:43.608Z,929.34
2018-07-03T01:25:43.587Z,929.37
2018-07-03T01:26:43.549Z,929.36
2018-07-03T01:27:43.534Z,929.34
2018-07-03T01:28:43.493Z,929.35
2018-07-03T01:29:43.499Z,929.30
2018-07-03T01:30:43.449Z,929.26
2018-07-03T01:31:43.429Z,929.32
2018-07-03T01:32:43.431Z,929.30
2018-07-03T01:33:43.411Z,929.31
2018-07-03T01:34:43.375Z,929.31
2018-07-03T01:35:43.371Z,929.26
2018-07-03T01:36:43.330Z,929.28
2018-07-03T01:37:43.300Z,929.22
2018-07-03T01:38:43.305Z,929.29
2018-07-03T01:39:43.286Z,929.26
2018-07-03T01:40:43.236Z,929.25
2018-07-03T01:41:43.211Z,929.28
2018-07-03T01:42:43.193Z,929.30
2018-07-03T01:43:43.194Z,929.32
2018-07-03T01:44:43.147Z,929.26
2018-07-03T01:45:43.126Z,929.30
2018-07-03T01:46:43.118Z,929.28
2018-07-03T01:47:43.083Z,929.28
2018-07-03T01:48:43.092Z,929.34
2018-07-03T01:49:43.044Z,929.29
2018-07-03T01:50:43.018Z,929.30
2018-07-03T01:51:43.025Z,929.27
2018-07-03T01:52:42.988Z,929.27
2018-07-03T01:53:42.965Z,929.28
2018-07-03T01:54:42.936Z,929.32
2018-07-03T01:55:42.915Z,929.33
2018-07-03T01:56:42.900Z,929.34
2018-07-03T01:57:42.865Z,929.36
2018-07-03T01:58:42.835Z,929.35
2018-07-03T01:59:42.820Z,929.35
2018-07-03T02:00:42.829Z,929.34
2018-07-03T02:01:42.773Z,929.37
2018-07-03T02:02:42.752Z,929.30
2018-07-03T02:03:42.764Z,929.30
2018-07-03T02:04:42.721Z,929.33
2018-07-03T02:05:42.720Z,929.31
2018-07-03T02:06:42.681Z,929.28
2018-07-03T02:07:42.648Z,929.24
2018-07-03T02:08:42.626Z,929.24
2018-07-03T02:09:42.601Z,929.25
2018-07-03T02:10:42.591Z,929.24
2018-07-03T02:11:42.559Z,929.27
2018-07-03T02:12:42.561Z,929.27
2018-07-03T02:13:42.521Z,929.30
2018-07-03T02:14:42.516Z,929.23
2018-07-03T02:15:42.497Z,929.32
2018-07-03T02:16:42.473Z,929.21
2018-07-03T02:17:42.427Z,929.22
2018-07-03T02:18:42.412Z,929.23
2018-07-03T02:19:42.409Z,929.21
2018-07-03T02:20:42.360Z,929.24
2018-07-03T02:21:42.366Z,929.26
2018-07-03T02:22:42.344Z,929.21
2018-07-03T02:23:42.310Z,929.22
2018-07-03T02:24:42.275Z,929.25
2018-07-03T02:25:42.280Z,929.27
2018-07-03T02:26:42.231Z,929.29
2018-07-03T02:27:42.206Z,929.30
2018-07-03T02:28:42.185Z,929.30
2018-07-03T02:29:42.166Z,929.26
2018-07-03T02:30:42.167Z,929.23
2018-07-03T02:31:42.126Z,929.23
2018-07-03T02:32:42.123Z,929.20
2018-07-03T02:33:42.106Z,929.21
2018-07-03T02:34:42.085Z,929.19
2018-07-03T02:35:42.058Z,929.21
2018-07-03T02:36:42.008Z,929.23
2018-07-03T02:37:42.000Z,929.21
2018-07-03T02:38:41.982Z,929.25
2018-07-03T02:39:41.955Z,929.23
2018-07-03T02:40:41.925Z,929.24
2018-07-03T02:41:41.902Z,929.24
2018-07-03T02:42:41.876Z,929.23
2018-07-03T02:43:41.858Z,929.21
2018-07-03T02:44:41.838Z,929.23
2018-07-03T02:45:41.840Z,929.26
2018-07-03T02:46:41.790Z,929.22
2018-07-03T02:47:41.791Z,929.24
2018-07-03T02:48:41.771Z,929.23
2018-07-03T02:49:41.728Z,929.21
2018-07-03T02:50:41.713Z,929.22
2018-07-03T02:51:41.706Z,929.22
2018-07-03T02:52:41.684Z,929.24
2018-07-03T02:53:41.650Z,929.20
2018-07-03T02:54:41.613Z,929.21
2018-07-03T02:55:41.592Z,929.27
2018-07-03T02:56:41.601Z,929.25
2018-07-03T02:57:41.576Z,929.23
2018-07-03T02:58:41.526Z,929.24
2018-07-03T02:59:41.506Z,929.25
2018-07-03T03:00:41.512Z,929.26
2018-07-03T03:01:41.486Z,929.25
2018-07-03T03:02:41.440Z,929.24
2018-07-03T03:03:41.411Z,929.26
2018-07-03T03:04:41.421Z,929.27
2018-07-03T03:05:41.397Z,929.29
2018-07-03T03:06:41.349Z,929.28
2018-07-03T03:07:41.330Z,929.28
2018-07-03T03:08:41.299Z,929.21
2018-07-03T03:09:41.280Z,929.22
2018-07-03T03:10:41.271Z,929.22
2018-07-03T03:11:41.258Z,929.20
2018-07-03T03:12:41.215Z,929.19
2018-07-03T03:13:41.223Z,929.20
2018-07-03T03:14:41.168Z,929.20
2018-07-03T03:15:41.179Z,929.23
2018-07-03T03:16:41.154Z,929.21
2018-07-03T03:17:41.109Z,929.24
2018-07-03T03:18:41.094Z,929.27
2018-07-03T03:19:41.065Z,929.16
2018-07-03T03:20:41.039Z,929.12
2018-07-03T03:21:41.013Z,929.23
2018-07-03T03:22:40.996Z,929.20
2018-07-03T03:23:41.064Z,929.24
2018-07-03T03:24:40.953Z,929.15
2018-07-03T03:25:40.953Z,929.23
2018-07-03T03:26:40.905Z,929.19
2018-07-03T03:27:40.883Z,929.21
2018-07-03T03:28:40.862Z,929.25
2018-07-03T03:29:40.842Z,929.29
2018-07-03T03:30:40.832Z,929.30
2018-07-03T03:31:40.811Z,929.32
2018-07-03T03:32:40.805Z,929.28
2018-07-03T03:33:40.761Z,929.26
2018-07-03T03:34:40.731Z,929.29
2018-07-03T03:35:40.713Z,929.28
2018-07-03T03:36:40.711Z,929.34
2018-07-03T03:37:40.690Z,929.38
2018-07-03T03:38:40.669Z,929.40
2018-07-03T03:39:40.647Z,929.42
2018-07-03T03:40:40.623Z,929.37
2018-07-03T03:41:40.580Z,929.41
2018-07-03T03:42:40.649Z,929.40
2018-07-03T03:43:40.523Z,929.47
2018-07-03T03:44:40.516Z,929.45
2018-07-03T03:45:40.520Z,929.46
2018-07-03T03:46:40.461Z,929.43
2018-07-03T03:47:40.441Z,929.45
2018-07-03T03:48:40.419Z,929.40
2018-07-03T03:49:40.408Z,929.40
2018-07-03T03:50:40.400Z,929.43
2018-07-03T03:51:40.344Z,929.47
2018-07-03T03:52:40.326Z,929.46
2018-07-03T03:53:40.335Z,929.46
2018-07-03T03:54:40.306Z,929.47
2018-07-03T03:55:40.263Z,929.48
2018-07-03T03:56:40.233Z,929.44
2018-07-03T03:57:40.213Z,929.45
2018-07-03T03:58:40.221Z,929.43
2018-07-03T03:59:40.198Z,929.41
2018-07-03T04:00:40.181Z,929.45
2018-07-03T04:01:40.157Z,929.45
2018-07-03T04:02:40.105Z,929.41
2018-07-03T04:03:40.109Z,929.43
2018-07-03T04:04:40.075Z,929.41
2018-07-03T04:05:40.039Z,929.44
2018-07-03T04:06:40.039Z,929.44
2018-07-03T04:07:39.993Z,929.43
2018-07-03T04:08:39.994Z,929.41
2018-07-03T04:09:39.950Z,929.40
2018-07-03T04:10:39.938Z,929.40
2018-07-03T04:11:39.926Z,929.38
2018-07-03T04:12:39.904Z,929.41
2018-07-03T04:13:39.877Z,929.39
2018-07-03T04:14:39.846Z,929.37
2018-07-03T04:15:39.837Z,929.35
2018-07-03T04:16:39.792Z,929.35
2018-07-03T04:17:39.791Z,929.39
2018-07-03T04:18:39.768Z,929.40
2018-07-03T04:19:39.752Z,929.39
2018-07-03T04:20:39.698Z,929.41
2018-07-03T04:21:39.701Z,929.43
2018-07-03T04:22:39.656Z,929.37
2018-07-03T04:23:39.655Z,929.38
2018-07-03T04:24:39.636Z,929.38
2018-07-03T04:25:39.589Z,929.37
2018-07-03T04:26:39.589Z,929.37
2018-07-03T04:27:39.540Z,929.32
2018-07-03T04:28:39.546Z,929.29
2018-07-03T04:29:39.511Z,929.32
2018-07-03T04:30:39.475Z,929.29
2018-07-03T04:31:39.453Z,929.31
2018-07-03T04:32:39.439Z,929.26
2018-07-03T04:33:39.409Z,929.27
2018-07-03T04:34:39.381Z,929.24
2018-07-03T04:35:39.388Z,929.31
2018-07-03T04:36:39.343Z,929.28
2018-07-03T04:37:39.312Z,929.28
2018-07-03T04:38:39.299Z,929.26
2018-07-03T04:39:39.298Z,929.22
2018-07-03T04:40:39.274Z,929.22
2018-07-03T04:41:39.256Z,929.23
2018-07-03T04:42:39.227Z,929.24
2018-07-03T04:43:39.181Z,929.28
2018-07-03T04:44:39.161Z,929.20
2018-07-03T04:45:39.136Z,929.19
2018-07-03T04:46:39.139Z,929.19
2018-07-03T04:47:39.088Z,929.18
2018-07-03T04:48:39.067Z,929.19
2018-07-03T04:49:39.071Z,929.19
2018-07-03T04:50:39.021Z,929.20
2018-07-03T04:51:39.026Z,929.14
2018-07-03T04:52:39.003Z,929.16
2018-07-03T04:53:38.984Z,929.17
2018-07-03T04:54:38.953Z,929.17
2018-07-03T04:55:38.938Z,929.13
2018-07-03T04:56:38.903Z,929.10
2018-07-03T04:57:38.865Z,929.09
2018-07-03T04:58:38.851Z,929.08
2018-07-03T04:59:38.841Z,929.06
2018-07-03T05:00:38.825Z,929.06
2018-07-03T05:01:38.784Z,929.05
2018-07-03T05:02:38.783Z,929.04
2018-07-03T05:03:38.726Z,929.05
2018-07-03T05:04:38.727Z,929.05
2018-07-03T05:05:38.682Z,929.03
2018-07-03T05:06:38.670Z,929.07
2018-07-03T05:07:38.638Z,929.03
2018-07-03T05:08:38.612Z,929.04
2018-07-03T05:09:38.591Z,929.03
2018-07-03T05:10:38.562Z,929.03
2018-07-03T05:11:38.570Z,929.03
2018-07-03T05:12:38.547Z,929.01
2018-07-03T05:13:38.496Z,929.03
2018-07-03T05:14:38.504Z,929.05
2018-07-03T05:15:38.453Z,929.06
2018-07-03T05:16:38.432Z,929.11
2018-07-03T05:17:38.420Z,929.08
2018-07-03T05:18:38.383Z,929.06
2018-07-03T05:19:38.387Z,929.05
2018-07-03T05:20:38.345Z,929.04
2018-07-03T05:21:38.313Z,929.08
2018-07-03T05:22:38.299Z,929.06
2018-07-03T05:23:38.280Z,929.05
2018-07-03T05:24:38.394Z,929.06
2018-07-03T05:25:38.237Z,929.06
2018-07-03T05:26:38.202Z,929.05
2018-07-03T05:27:38.191Z,929.08
2018-07-03T05:28:38.160Z,929.05
2018-07-03T05:29:38.164Z,929.08
2018-07-03T05:30:38.142Z,929.06
2018-07-03T05:31:38.181Z,929.08
2018-07-03T05:32:38.093Z,929.06
2018-07-03T05:33:38.068Z,929.10
2018-07-03T05:34:38.023Z,929.04
2018-07-03T05:35:38.032Z,929.04
2018-07-03T05:36:37.973Z,929.03
2018-07-03T05:37:37.951Z,929.03
2018-07-03T05:38:37.956Z,929.02
2018-07-03T05:39:37.933Z,929.02
2018-07-03T05:40:37.886Z,929.04
2018-07-03T05:41:37.889Z,929.05
2018-07-03T05:42:37.861Z,929.04
2018-07-03T05:43:37.813Z,929.00
2018-07-03T05:44:37.803Z,928.96
2018-07-03T05:45:37.776Z,928.97
2018-07-03T05:46:37.775Z,928.95
2018-07-03T05:47:37.750Z,928.98
2018-07-03T05:48:37.699Z,928.99
2018-07-03T05:49:37.688Z,928.97
2018-07-03T05:50:37.653Z,928.93
2018-07-03T05:51:37.658Z,928.97
2018-07-03T05:52:37.641Z,928.92
2018-07-03T05:53:37.611Z,928.95
2018-07-03T05:54:37.578Z,928.93
2018-07-03T05:55:37.547Z,928.96
2018-07-03T05:56:37.605Z,928.97
2018-07-03T05:57:37.507Z,928.96
2018-07-03T05:58:37.497Z,928.92
2018-07-03T05:59:37.480Z,928.94
2018-07-03T06:00:37.426Z,928.94
2018-07-03T06:01:37.433Z,928.92
2018-07-03T06:02:37.381Z,928.93
2018-07-03T06:03:37.358Z,928.95
2018-07-03T06:04:37.340Z,928.97
2018-07-03T06:05:37.348Z,928.99
2018-07-03T06:06:37.293Z,928.98
2018-07-03T06:07:37.277Z,929.00
2018-07-03T06:08:37.272Z,928.96
2018-07-03T06:09:37.317Z,928.95
2018-07-03T06:10:37.198Z,928.94
2018-07-03T06:11:37.201Z,928.99
2018-07-03T06:12:37.152Z,928.96
2018-07-03T06:13:37.144Z,928.95
2018-07-03T06:14:37.112Z,928.98
2018-07-03T06:15:37.082Z,929.00
2018-07-03T06:16:37.093Z,929.01
2018-07-03T06:17:37.067Z,929.03
2018-07-03T06:18:37.042Z,929.03
2018-07-03T06:19:37.011Z,929.04
2018-07-03T06:20:36.977Z,929.00
2018-07-03T06:21:36.971Z,929.02
2018-07-03T06:22:36.951Z,929.02
2018-07-03T06:23:36.928Z,929.01
2018-07-03T06:24:36.889Z,928.98
2018-07-03T06:25:36.853Z,928.98
2018-07-03T06:26:36.863Z,928.96
2018-07-03T06:27:36.838Z,928.99
2018-07-03T06:28:36.788Z,929.01
2018-07-03T06:29:36.789Z,929.02
2018-07-03T06:30:36.754Z,929.00
2018-07-03T06:31:36.713Z,929.01
2018-07-03T06:32:36.689Z,929.00
2018-07-03T06:33:36.677Z,929.00
2018-07-03T06:34:36.659Z,929.01
2018-07-03T06:35:36.654Z,929.02
2018-07-03T06:36:36.630Z,929.00
2018-07-03T06:37:36.609Z,928.99
2018-07-03T06:38:36.557Z,928.99
2018-07-03T06:39:36.532Z,928.99
2018-07-03T06:40:36.506Z,928.94
2018-07-03T06:41:36.512Z,928.97
2018-07-03T06:42:36.493Z,928.98
2018-07-03T06:43:36.713Z,928.97
2018-07-03T06:44:36.421Z,928.98
2018-07-03T06:45:36.410Z,928.93
2018-07-03T06:46:36.396Z,928.96
2018-07-03T06:47:36.360Z,928.92
2018-07-03T06:48:36.337Z,929.01
2018-07-03T06:49:36.314Z,928.98
2018-07-03T06:50:36.289Z,928.97
2018-07-03T06:51:36.279Z,928.92
2018-07-03T06:52:36.266Z,928.88
2018-07-03T06:53:36.225Z,928.95
2018-07-03T06:54:36.200Z,928.93
2018-07-03T06:55:36.165Z,928.93
2018-07-03T06:56:36.167Z,928.94
2018-07-03T06:57:36.147Z,928.94
2018-07-03T06:58:36.103Z,928.92
2018-07-03T06:59:36.080Z,928.96
2018-07-03T07:00:36.051Z,928.98
2018-07-03T07:01:36.051Z,929.05
2018-07-03T07:02:36.002Z,929.02
2018-07-03T07:03:35.983Z,929.04
2018-07-03T07:04:35.961Z,929.05
2018-07-03T07:05:35.963Z,929.02
2018-07-03T07:06:35.910Z,929.03
2018-07-03T07:07:35.896Z,929.00
2018-07-03T07:08:35.974Z,928.98
2018-07-03T07:09:35.934Z,929.00
2018-07-03T07:10:35.848Z,929.02
2018-07-03T07:11:35.799Z,928.97
2018-07-03T07:12:35.803Z,929.02
2018-07-03T07:13:35.776Z,929.05
2018-07-03T07:14:35.755Z,929.00
2018-07-03T07:15:35.711Z,929.01
2018-07-03T07:16:35.697Z,929.04
2018-07-03T07:17:35.660Z,929.04
2018-07-03T07:18:35.645Z,929.05
2018-07-03T07:19:35.637Z,929.04
2018-07-03T07:20:35.615Z,929.04
2018-07-03T07:21:35.594Z,929.02
2018-07-03T07:22:35.567Z,929.07
2018-07-03T07:23:35.547Z,929.09
2018-07-03T07:24:35.495Z,929.03
2018-07-03T07:25:35.505Z,929.07
2018-07-03T07:26:35.452Z,929.05
2018-07-03T07:27:35.457Z,929.07
2018-07-03T07:28:35.436Z,929.07
2018-07-03T07:29:35.383Z,929.06
2018-07-03T07:30:35.377Z,929.08
2018-07-03T07:31:35.361Z,929.08
2018-07-03T07:32:35.337Z,929.07
2018-07-03T07:33:35.291Z,929.12
2018-07-03T07:34:35.294Z,929.09
2018-07-03T07:35:35.242Z,929.09
2018-07-03T07:36:35.227Z,929.11
2018-07-03T07:37:35.207Z,929.09
2018-07-03T07:38:35.205Z,929.06
2018-07-03T07:39:35.148Z,929.05
2018-07-03T07:40:35.137Z,929.10
2018-07-03T07:41:35.100Z,929.09
2018-07-03T07:42:35.146Z,929.11
2018-07-03T07:43:35.085Z,929.12
2018-07-03T07:44:35.062Z,929.11
2018-07-03T07:45:35.043Z,929.11
2018-07-03T07:46:34.987Z,929.11
2018-07-03T07:47:34.967Z,929.15
2018-07-03T07:48:34.951Z,929.15
2018-07-03T07:49:34.930Z,929.15
2018-07-03T07:50:34.898Z,929.18
2018-07-03T07:51:34.887Z,929.18
2018-07-03T07:52:34.850Z,929.20
2018-07-03T07:53:34.834Z,929.18
2018-07-03T07:54:34.800Z,929.21
2018-07-03T07:55:34.784Z,929.25
2018-07-03T07:56:34.784Z,929.27
2018-07-03T07:57:34.764Z,929.30
2018-07-03T07:58:34.716Z,929.33
2018-07-03T07:59:34.713Z,929.34
2018-07-03T08:00:34.693Z,929.39
2018-07-03T08:01:34.646Z,929.33
2018-07-03T08:02:34.649Z,929.37
2018-07-03T08:03:34.597Z,929.37
2018-07-03T08:04:34.584Z,929.36
2018-07-03T08:05:34.583Z,929.35
2018-07-03T08:06:34.529Z,929.41
2018-07-03T08:07:34.500Z,929.40
2018-07-03T08:08:34.488Z,929.38
2018-07-03T08:09:34.490Z,929.39
2018-07-03T08:10:34.433Z,929.40
2018-07-03T08:11:34.439Z,929.42
2018-07-03T08:12:34.395Z,929.40
2018-07-03T08:13:34.384Z,929.43
2018-07-03T08:14:34.354Z,929.37
2018-07-03T08:15:34.333Z,929.40
2018-07-03T08:16:34.303Z,929.37
2018-07-03T08:17:34.300Z,929.41
2018-07-03T08:18:34.245Z,929.39
2018-07-03T08:19:34.233Z,929.39
2018-07-03T08:20:34.203Z,929.37
2018-07-03T08:21:34.188Z,929.39
2018-07-03T08:22:34.167Z,929.41
2018-07-03T08:23:34.141Z,929.44
2018-07-03T08:24:34.144Z,929.43
2018-07-03T08:25:34.091Z,929.44
2018-07-03T08:26:34.125Z,929.44
2018-07-03T08:27:34.041Z,929.45
2018-07-03T08:28:34.045Z,929.47
2018-07-03T08:29:34.011Z,929.46
2018-07-03T08:30:33.973Z,929.44
2018-07-03T08:31:33.944Z,929.48
2018-07-03T08:32:33.935Z,929.50
2018-07-03T08:33:34.399Z,929.50
2018-07-03T08:34:33.894Z,929.51
2018-07-03T08:35:33.866Z,929.56
2018-07-03T08:36:33.859Z,929.55
2018-07-03T08:37:33.812Z,929.57
2018-07-03T08:38:33.800Z,929.59
2018-07-03T08:39:33.761Z,929.58
2018-07-03T08:40:33.739Z,929.57
2018-07-03T08:41:33.716Z,929.59
2018-07-03T08:42:33.718Z,929.60
2018-07-03T08:43:33.673Z,929.59
2018-07-03T08:44:33.646Z,929.63
2018-07-03T08:45:33.635Z,929.63
2018-07-03T08:46:33.630Z,929.64
2018-07-03T08:47:33.589Z,929.67
2018-07-03T08:48:33.557Z,929.68
2018-07-03T08:49:33.562Z,929.70
2018-07-03T08:50:33.521Z,929.69
2018-07-03T08:51:33.513Z,929.68
2018-07-03T08:52:33.461Z,929.71
2018-07-03T08:53:33.470Z,929.69
2018-07-03T08:54:33.415Z,929.71
2018-07-03T08:55:33.392Z,929.71
2018-07-03T08:56:33.376Z,929.68
2018-07-03T08:57:33.349Z,929.75
2018-07-03T08:58:33.332Z,929.75
2018-07-03T08:59:33.301Z,929.75
2018-07-03T09:00:33.307Z,929.76
2018-07-03T09:01:33.253Z,929.78
2018-07-03T09:02:33.237Z,929.79
2018-07-03T09:03:33.198Z,929.80
2018-07-03T09:04:33.187Z,929.82
2018-07-03T09:05:33.158Z,929.76
2018-07-03T09:06:33.138Z,929.81
2018-07-03T09:07:33.124Z,929.81
2018-07-03T09:08:33.114Z,929.79
2018-07-03T09:09:33.090Z,929.81
2018-07-03T09:10:33.037Z,929.87
2018-07-03T09:11:33.038Z,929.87
2018-07-03T09:12:33.022Z,929.85
2018-07-03T09:13:32.973Z,929.87
2018-07-03T09:14:32.976Z,929.88
2018-07-03T09:15:32.927Z,929.86
2018-07-03T09:16:32.927Z,929.86
2018-07-03T09:17:32.907Z,929.92
2018-07-03T09:18:32.883Z,929.90
2018-07-03T09:19:32.842Z,929.92
2018-07-03T09:20:32.812Z,929.92
2018-07-03T09:21:32.789Z,929.95
2018-07-03T09:22:32.767Z,929.99
2018-07-03T09:23:32.810Z,929.92
2018-07-03T09:24:32.740Z,929.94
2018-07-03T09:25:32.696Z,929.90
2018-07-03T09:26:32.663Z,929.87
2018-07-03T09:27:32.677Z,929.93
2018-07-03T09:28:32.650Z,929.92
2018-07-03T09:29:32.605Z,929.92
2018-07-03T09:30:32.648Z,929.90
2018-07-03T09:31:32.572Z,929.92
2018-07-03T09:32:32.555Z,929.94
2018-07-03T09:33:32.514Z,929.94
2018-07-03T09:34:32.479Z,929.98
2018-07-03T09:35:32.461Z,929.95
2018-07-03T09:36:32.439Z,929.97
2018-07-03T09:37:32.410Z,929.98
2018-07-03T09:38:32.387Z,929.95
2018-07-03T09:39:32.373Z,929.95
2018-07-03T09:40:32.343Z,930.01
2018-07-03T09:41:32.351Z,930.01
2018-07-03T09:42:32.325Z,930.00
2018-07-03T09:43:32.301Z,929.97
2018-07-03T09:44:32.273Z,930.04
2018-07-03T09:45:32.229Z,930.01
2018-07-03T09:46:32.209Z,930.04
2018-07-03T09:47:32.173Z,930.11
2018-07-03T09:48:32.158Z,930.14
2018-07-03T09:49:32.148Z,930.13
2018-07-03T09:50:32.116Z,930.13
2018-07-03T09:51:32.094Z,930.18
2018-07-03T09:52:32.063Z,930.14
2018-07-03T09:53:32.045Z,930.20
2018-07-03T09:54:32.013Z,930.24
2018-07-03T09:55:31.989Z,930.24
2018-07-03T09:56:31.983Z,930.24
2018-07-03T09:57:31.948Z,930.27
2018-07-03T09:58:31.922Z,930.22
2018-07-03T09:59:31.897Z,930.24
2018-07-03T10:00:31.870Z,930.26
2018-07-03T10:01:31.876Z,930.28
2018-07-03T10:02:31.824Z,930.35
2018-07-03T10:03:31.805Z,930.34
2018-07-03T10:04:31.811Z,930.37
2018-07-03T10:05:31.785Z,930.38
2018-07-03T10:06:31.735Z,930.39
2018-07-03T10:07:31.708Z,930.34
2018-07-03T10:08:31.713Z,930.38
2018-07-03T10:09:31.670Z,930.39
2018-07-03T10:10:31.646Z,930.39
2018-07-03T10:11:31.620Z,930.41
2018-07-03T10:12:31.600Z,930.46
2018-07-03T10:13:31.572Z,930.44
2018-07-03T10:14:31.548Z,930.48
2018-07-03T10:15:31.528Z,930.44
2018-07-03T10:16:31.505Z,930.47
2018-07-03T10:17:31.486Z,930.45
2018-07-03T10:18:31.483Z,930.47
2018-07-03T10:19:31.456Z,930.50
2018-07-03T10:20:31.433Z,930.56
2018-07-03T10:21:31.385Z,930.57
2018-07-03T10:22:31.390Z,930.60
2018-07-03T10:23:31.341Z,930.55
2018-07-03T10:24:31.316Z,930.54
2018-07-03T10:25:31.323Z,930.62
2018-07-03T10:26:31.297Z,930.61
2018-07-03T10:27:31.252Z,930.69
2018-07-03T10:28:31.227Z,930.65
2018-07-03T10:29:31.229Z,930.69
2018-07-03T10:30:31.183Z,930.70
2018-07-03T10:31:31.157Z,930.71
2018-07-03T10:32:31.135Z,930.71
2018-07-03T10:33:31.114Z,930.73
2018-07-03T10:34:31.120Z,930.78
2018-07-03T10:35:31.068Z,930.75
2018-07-03T10:36:31.045Z,930.79
2018-07-03T10:37:31.049Z,930.80
2018-07-03T10:38:30.999Z,930.81
2018-07-03T10:39:30.980Z,930.85
2018-07-03T10:40:30.958Z,930.82
2018-07-03T10:41:30.939Z,930.87
2018-07-03T10:42:30.912Z,930.81
2018-07-03T10:43:30.891Z,930.89
2018-07-03T10:44:30.895Z,930.88
2018-07-03T10:45:30.852Z,930.87
2018-07-03T10:46:30.849Z,930.89
2018-07-03T10:47:30.828Z,930.89
2018-07-03T10:48:30.780Z,930.88
2018-07-03T10:49:30.761Z,930.93
2018-07-03T10:50:30.753Z,930.91
2018-07-03T10:51:30.722Z,930.86
2018-07-03T10:52:30.697Z,930.93
2018-07-03T10:53:30.680Z,930.91
2018-07-03T10:54:30.682Z,930.94
2018-07-03T10:55:30.639Z,930.97
2018-07-03T10:56:30.632Z,930.94
2018-07-03T10:57:30.592Z,930.94
2018-07-03T10:58:30.601Z,930.99
2018-07-03T10:59:30.574Z,930.93
2018-07-03T11:00:30.536Z,930.95
2018-07-03T11:01:30.525Z,930.98
2018-07-03T11:02:30.497Z,930.97
2018-07-03T11:03:30.487Z,931.03
2018-07-03T11:04:30.478Z,931.06
2018-07-03T11:05:30.461Z,931.02
2018-07-03T11:06:30.439Z,930.97
2018-07-03T11:07:30.396Z,931.03
2018-07-03T11:08:30.376Z,931.05
2018-07-03T11:09:30.381Z,931.06
2018-07-03T11:10:30.340Z,931.10
2018-07-03T11:11:30.344Z,931.13
2018-07-03T11:12:30.323Z,931.16
2018-07-03T11:13:30.307Z,931.21
2018-07-03T11:14:30.271Z,931.23
2018-07-03T11:15:30.252Z,931.30
2018-07-03T11:16:30.298Z,931.43
2018-07-03T11:17:30.203Z,931.65
2018-07-03T11:18:30.202Z,931.68
2018-07-03T11:19:30.172Z,931.72
2018-07-03T11:20:30.150Z,931.71
2018-07-03T11:21:30.128Z,931.71
2018-07-03T11:22:30.137Z,931.71
2018-07-03T11:23:30.088Z,931.71
2018-07-03T11:24:30.098Z,931.61
2018-07-03T11:25:30.061Z,931.47
2018-07-03T11:26:30.077Z,931.42
2018-07-03T11:27:30.054Z,931.45
2018-07-03T11:28:29.999Z,931.47
2018-07-03T11:29:30.094Z,931.50
2018-07-03T11:30:29.963Z,931.48
2018-07-03T11:31:29.954Z,931.55
2018-07-03T11:32:29.925Z,931.66
2018-07-03T11:33:29.912Z,931.72
2018-07-03T11:34:29.914Z,931.79
2018-07-03T11:35:29.876Z,931.76
2018-07-03T11:36:29.878Z,931.78
2018-07-03T11:37:29.834Z,931.74
2018-07-03T11:38:29.843Z,931.73
2018-07-03T11:39:29.808Z,931.77
2018-07-03T11:40:29.784Z,931.71
2018-07-03T11:41:29.766Z,931.59
2018-07-03T11:42:29.756Z,931.56
2018-07-03T11:43:29.741Z,931.58
2018-07-03T11:44:29.727Z,931.65
2018-07-03T11:45:29.725Z,931.66
2018-07-03T11:46:29.733Z,931.69
2018-07-03T11:47:29.669Z,931.66
2018-07-03T11:48:29.646Z,931.61
2018-07-03T11:49:29.627Z,931.64
2018-07-03T11:50:29.611Z,931.66
2018-07-03T11:51:29.602Z,931.70
2018-07-03T11:52:29.590Z,931.69
2018-07-03T11:53:29.582Z,931.75
2018-07-03T11:54:29.541Z,931.75
2018-07-03T11:55:29.524Z,931.74
2018-07-03T11:56:29.509Z,931.76
2018-07-03T11:57:29.519Z,931.83
2018-07-03T11:58:29.499Z,931.95
2018-07-03T11:59:29.487Z,932.06
2018-07-03T12:00:29.449Z,932.13
2018-07-03T12:01:29.448Z,932.13
2018-07-03T12:02:29.464Z,932.12
2018-07-03T12:03:29.423Z,932.17
2018-07-03T12:04:29.418Z,932.19
2018-07-03T12:05:29.364Z,932.01
2018-07-03T12:06:29.348Z,931.83
2018-07-03T12:07:29.359Z,931.88
2018-07-03T12:08:29.317Z,931.93
2018-07-03T12:09:29.330Z,932.27
2018-07-03T12:10:29.287Z,932.52
2018-07-03T12:11:29.269Z,932.38
2018-07-03T12:12:29.263Z,932.28
2018-07-03T12:13:29.316Z,932.23
2018-07-03T12:14:29.241Z,932.12
2018-07-03T12:15:29.251Z,932.03
2018-07-03T12:16:29.224Z,932.07
2018-07-03T12:17:29.184Z,931.99
2018-07-03T12:18:29.172Z,932.06
2018-07-03T12:19:29.186Z,932.16
2018-07-03T12:20:29.143Z,932.29
2018-07-03T12:21:29.152Z,932.32
2018-07-03T12:22:29.119Z,932.42
2018-07-03T12:23:29.092Z,932.47
2018-07-03T12:24:29.079Z,932.50
2018-07-03T12:25:29.061Z,932.65
2018-07-03T12:26:29.079Z,932.63
2018-07-03T12:27:29.063Z,932.70
2018-07-03T12:28:29.046Z,932.62